Werte bis 5 Uhr SommerzeitDiagramme Niedergude: Tagesdaten MonatsdatenCSV-Datei: Niedergude21.csv

Wetterdaten 2021 Station: Niedergude
Temperaturen in °C relative Nieder- Global- Wind Wind Wind- Sonnen-
Datum Boden Boden Luft Luft Luft Luft Feuchte schlag strahlung max richtung schein
20 cm 5 cm 20 cm 2 m 2 m max 2 m min % mm W/m2*d m/s m/s ° h

27.10.2021 7,9 8,0 4,9 7,9 8,9 7,3 89 0,0 0 0,6 2,7 --- ---
26.10.2021 7,6 7,8 9,3 10,3 14,2 7,1 82 0,3 886 0,9 6,7 --- 2,9
25.10.2021 7,3 6,8 4,7 6,3 17,3 -0,8 79 0,0 1366 0,5 4,1 --- 4,6
24.10.2021 7,8 7,1 3,0 4,4 15,8 -2,3 77 0,1 1620 0,4 2,1 --- 6,0
23.10.2021 8,5 8,1 4,0 5,1 12,5 0,3 82 0,2 1206 0,7 4,4 --- 4,9
22.10.2021 9,1 8,9 5,3 6,6 10,7 3,3 77 2,2 1042 2,2 12,4 --- 3,6
21.10.2021 9,7 10,3 9,6 10,9 16,1 3,7 75 6,9 1023 3,3 16,6 --- 3,3
20.10.2021 9,3 9,9 12,3 14,0 17,7 10,5 82 0,5 632 0,9 8,5 --- 2,2
19.10.2021 9,0 9,3 9,4 10,5 13,6 6,1 91 1,1 199 0,3 2,0 --- ---
18.10.2021 8,8 8,8 6,9 7,5 16,4 1,8 83 0,1 1380 0,4 3,3 --- 4,8
17.10.2021 9,0 8,9 6,5 6,9 16,2 1,9 80 0,0 1660 0,3 2,3 --- 6,0
16.10.2021 9,5 9,5 6,1 6,0 13,4 2,7 89 0,2 1231 0,5 2,3 --- 4,9
15.10.2021 9,8 10,2 8,6 9,4 11,9 4,8 85 1,0 610 1,0 6,9 --- 1,1
14.10.2021 9,6 9,9 9,5 10,1 11,6 8,2 89 2,0 497 1,2 4,8 --- 0,9
13.10.2021 9,4 9,3 7,4 7,6 12,2 2,6 87 0,9 1178 0,5 4,7 --- 3,9
12.10.2021 9,6 9,8 7,2 8,2 10,8 2,5 87 5,6 599 1,0 7,3 --- 1,1
11.10.2021 9,4 9,1 6,3 6,5 12,8 1,6 90 0,6 933 0,4 2,9 --- 2,8
10.10.2021 9,9 9,3 4,4 6,0 17,6 -0,8 77 0,0 1557 0,4 2,1 --- 4,8
09.10.2021 10,6 10,5 7,3 8,8 15,6 3,1 71 0,0 1980 1,3 6,4 --- 5,8
08.10.2021 11,1 11,0 8,4 9,1 16,4 3,7 83 0,1 1522 0,7 7,2 --- 5,5
07.10.2021 11,6 12,0 11,3 11,7 17,9 6,7 80 0,9 1572 0,3 3,4 --- 5,5
06.10.2021 11,7 12,2 11,2 11,5 14,9 10,1 77 0,6 1379 1,1 6,2 --- 4,7
05.10.2021 11,7 12,2 11,6 11,7 16,6 9,5 87 8,0 1112 0,4 3,7 --- 3,9
04.10.2021 12,0 12,6 12,0 12,4 15,7 9,2 81 0,3 1105 0,5 3,4 --- 5,0
03.10.2021 11,8 12,6 16,7 18,6 22,2 15,2 55 0,4 619 1,0 8,2 --- 2,5
02.10.2021 11,4 11,8 13,2 14,3 21,3 8,7 69 0,0 1656 0,5 4,8 --- 4,9
01.10.2021 11,4 11,4 9,9 11,8 20,4 4,2 63 0,0 2156 0,6 7,8 --- 6,0
30.09.2021 11,8 11,9 9,2 10,1 15,4 6,8 68 0,0 1900 1,2 6,8 --- 6,5
29.09.2021 12,3 12,6 10,1 10,7 18,2 6,8 80 2,5 1665 0,9 12,0 --- 5,4
28.09.2021 12,9 13,5 12,9 13,3 21,0 9,2 75 0,2 2182 0,6 4,7 --- 7,7
27.09.2021 12,8 13,8 16,8 17,4 22,0 13,9 81 0,4 1651 0,6 5,1 --- 6,2
26.09.2021 12,4 13,2 15,9 17,1 25,4 10,2 80 1,3 1543 0,5 4,3 --- 4,9
25.09.2021 12,4 13,0 13,4 15,2 25,6 8,8 76 0,0 2659 0,5 3,3 --- 7,3
24.09.2021 12,3 13,2 15,4 16,0 18,4 13,3 77 0,0 929 1,1 6,9 --- 3,2
23.09.2021 11,9 12,2 13,2 13,8 20,8 5,0 65 0,1 2613 1,6 9,5 --- 7,0
22.09.2021 12,0 12,2 11,5 11,6 20,1 6,0 78 0,0 2803 0,7 4,9 --- 8,9
21.09.2021 12,2 12,2 9,5 9,7 17,3 4,1 77 0,0 1590 0,4 3,3 --- 5,0
20.09.2021 12,8 12,8 8,8 9,1 14,9 3,9 74 0,0 1590 0,7 5,4 --- 6,1
19.09.2021 13,5 14,1 12,3 12,7 14,0 9,5 69 0,0 1444 1,8 7,8 --- 6,0
18.09.2021 13,6 14,2 14,2 14,4 19,6 10,7 77 0,0 1540 0,6 3,6 --- 5,8
17.09.2021 13,8 14,4 13,8 14,0 18,4 9,4 82 0,0 1858 0,8 4,7 --- 6,1
16.09.2021 14,2 15,2 15,3 15,4 17,8 12,1 81 0,4 1321 0,8 5,0 --- 4,3
15.09.2021 14,0 15,1 18,0 18,4 22,0 15,6 88 3,8 1073 0,4 4,4 --- 4,2
14.09.2021 13,7 14,4 16,7 17,9 28,0 10,2 73 0,0 3240 0,4 4,5 --- 7,9
13.09.2021 14,0 14,7 14,4 14,8 23,0 10,6 79 0,0 2253 0,5 3,6 --- 7,8
12.09.2021 14,2 15,2 16,8 16,6 25,3 12,2 78 0,0 2753 0,6 3,7 --- 8,0
11.09.2021 14,2 15,5 18,3 18,3 23,5 13,9 80 3,3 2490 0,7 6,0 --- 7,7
10.09.2021 13,9 15,2 18,8 19,5 26,2 16,6 82 1,8 1809 0,4 4,9 --- 6,0
09.09.2021 13,4 14,3 17,9 19,3 29,0 10,3 68 0,0 3527 0,4 4,0 --- 8,6
08.09.2021 13,3 14,1 16,7 18,2 27,7 10,1 66 0,0 4064 0,6 4,6 --- 9,3
07.09.2021 13,4 14,3 16,1 17,0 26,0 11,3 69 0,0 3536 0,5 3,5 --- 9,2
06.09.2021 13,3 14,1 15,6 16,4 25,9 9,1 70 0,0 4174 0,6 4,9 --- 9,1
05.09.2021 13,4 14,2 14,5 15,5 25,7 9,0 75 0,0 3933 0,6 3,6 --- 9,3
04.09.2021 13,4 14,1 15,6 16,2 25,8 9,1 72 0,0 4725 0,8 3,6 --- 10,2
03.09.2021 13,3 14,1 15,6 16,5 26,6 9,0 71 0,0 4798 0,5 3,7 --- 10,0
02.09.2021 13,4 14,1 14,4 14,8 24,3 8,3 75 0,1 4354 0,6 4,5 --- 10,0
01.09.2021 13,7 14,5 14,0 14,2 20,3 9,6 78 0,0 1837 0,6 2,9 --- 7,4
31.08.2021 13,9 14,9 15,1 15,2 21,0 11,2 78 0,0 2888 1,0 7,3 --- 7,8
30.08.2021 13,9 14,9 15,3 15,8 18,0 14,8 82 4,4 1147 1,2 5,8 --- 3,5
29.08.2021 13,8 14,8 14,7 14,8 17,1 13,5 88 10,5 1301 1,0 4,7 --- 4,7
28.08.2021 13,7 14,5 14,6 14,4 18,4 11,4 79 5,8 2307 0,8 3,8 --- 7,6
27.08.2021 13,8 14,6 12,8 13,0 15,6 10,6 87 8,8 1303 1,1 5,1 --- 3,9
26.08.2021 13,8 14,9 14,8 14,9 20,1 12,0 75 3,0 2750 1,6 6,8 --- 6,6
25.08.2021 13,6 14,2 14,7 14,8 22,7 6,1 63 0,0 4645 0,9 5,3 --- 9,0
24.08.2021 14,1 14,6 12,8 13,5 20,8 6,9 70 0,0 4197 1,2 7,6 --- 9,0
23.08.2021 14,6 15,8 15,3 15,6 20,4 10,4 80 0,1 1642 0,7 5,8 --- 5,0
22.08.2021 14,7 16,0 17,0 16,9 22,8 13,9 84 10,6 1991 0,7 6,0 --- 5,6
21.08.2021 14,5 15,8 18,3 18,5 27,9 11,7 71 0,0 3570 0,3 4,2 --- 9,8
20.08.2021 14,6 15,9 17,8 17,5 22,1 14,2 72 0,2 3089 0,9 4,7 --- 9,3
19.08.2021 14,4 15,7 17,2 17,4 20,5 15,7 77 0,0 1625 1,5 6,9 --- 5,4
18.08.2021 14,3 15,3 15,6 15,5 18,6 12,1 81 0,6 1711 1,3 6,2 --- 5,7
17.08.2021 14,5 15,3 13,4 13,3 17,0 10,2 73 1,4 2143 1,8 8,5 --- 6,6
16.08.2021 15,0 16,0 14,6 15,2 19,4 10,3 76 5,3 1526 1,6 10,6 --- 5,5
15.08.2021 15,0 16,3 19,3 19,3 28,1 11,1 64 0,0 5209 0,7 5,3 --- 11,0
14.08.2021 15,0 16,4 19,8 19,9 28,1 11,5 62 0,0 5895 1,1 6,7 --- 11,5
13.08.2021 14,8 16,4 21,0 21,1 29,8 13,4 68 0,1 4744 0,8 8,5 --- 10,3
12.08.2021 14,6 15,9 18,9 19,5 28,4 11,6 69 0,0 4235 0,4 4,7 --- 10,7
11.08.2021 14,5 15,9 18,2 17,8 26,3 13,3 73 0,1 4171 0,5 3,7 --- 9,6
10.08.2021 14,2 15,1 16,0 15,5 23,1 9,7 79 14,0 4231 0,8 5,8 --- 8,7
09.08.2021 14,5 15,4 15,0 15,3 22,8 9,3 73 0,3 3035 0,7 6,6 --- 10,1
08.08.2021 14,9 16,1 15,2 15,4 20,8 11,2 76 4,9 3207 1,3 8,4 --- 6,7
07.08.2021 14,8 16,0 16,9 17,2 23,8 10,7 75 1,9 2809 0,6 6,5 --- 9,1
06.08.2021 15,0 16,3 16,8 16,9 22,6 12,2 80 4,1 2574 0,8 9,8 --- 6,2
05.08.2021 15,0 16,5 18,3 17,8 25,5 13,7 75 4,4 3820 0,4 4,1 --- 10,0
04.08.2021 14,9 16,2 17,6 16,8 26,7 12,7 77 0,1 3259 0,3 2,4 --- 7,8
03.08.2021 15,0 16,3 15,8 15,4 21,7 11,8 84 4,2 2379 0,3 3,5 --- 8,4
02.08.2021 15,1 16,5 17,1 16,2 20,6 13,6 77 3,6 3254 0,8 6,0 --- 8,9
01.08.2021 15,1 16,3 16,4 15,8 23,4 10,9 78 0,5 3202 0,7 4,0 --- 8,6
31.07.2021 15,4 16,8 17,5 17,6 21,1 11,9 56 0,0 3911 2,1 9,1 --- 12,6
30.07.2021 15,3 16,6 19,1 18,5 26,0 9,2 58 0,0 6518 1,2 7,1 --- 11,9
29.07.2021 15,6 17,0 17,7 17,5 22,1 12,2 60 0,0 4185 1,8 10,5 --- 10,9
28.07.2021 15,8 17,3 18,3 18,2 23,0 13,5 73 1,9 3311 1,1 7,2 --- 10,6
27.07.2021 15,9 17,6 19,0 18,4 26,4 13,5 75 6,7 4437 0,9 9,1 --- 9,6
26.07.2021 15,8 17,7 21,0 20,4 27,6 15,5 74 5,8 4935 0,6 5,3 --- 10,0
25.07.2021 15,6 17,4 20,8 20,7 29,5 13,6 71 1,2 3976 0,4 3,8 --- 10,1
24.07.2021 15,4 17,1 21,0 21,5 28,6 14,6 62 0,2 3608 0,8 4,9 --- 9,4
23.07.2021 15,2 16,7 19,8 19,3 27,7 10,5 62 4,2 6413 0,8 4,3 --- 12,1
22.07.2021 15,2 16,8 19,1 18,8 25,5 12,7 64 0,0 3752 0,4 3,3 --- 11,1
21.07.2021 15,1 16,2 16,9 16,3 25,3 8,3 66 0,0 3573 0,6 3,7 --- 10,4
20.07.2021 15,6 16,9 16,6 16,0 21,7 9,9 63 0,0 4947 0,8 4,9 --- 12,0
19.07.2021 15,9 17,6 18,6 17,9 22,9 14,6 65 0,0 4681 1,1 5,0 --- 9,8
18.07.2021 15,7 17,5 20,7 19,9 26,7 11,8 64 0,0 7418 1,0 5,7 --- 12,7
17.07.2021 15,6 17,5 20,9 20,2 26,1 17,2 67 0,0 4929 1,6 6,6 --- 12,0
16.07.2021 15,4 17,1 18,6 18,3 21,4 15,9 83 0,0 1682 1,0 4,6 --- 6,8
15.07.2021 15,2 16,7 18,7 18,2 26,0 11,9 73 0,0 4857 0,4 3,3 --- 9,5
14.07.2021 15,6 17,2 16,3 16,4 18,7 13,1 89 20,1 984 0,5 3,8 --- 1,5
13.07.2021 15,5 17,3 19,8 19,6 25,6 14,4 81 3,3 2619 0,6 4,9 --- 7,4
12.07.2021 15,1 17,1 20,9 20,2 28,8 14,5 69 0,1 6048 0,4 3,3 --- 10,1
11.07.2021 14,9 16,3 17,0 16,8 21,6 13,6 87 2,1 2022 0,5 3,1 --- 5,2
10.07.2021 15,0 16,4 18,0 17,8 23,6 11,5 76 0,0 3074 0,3 2,9 --- 10,2
09.07.2021 15,5 16,9 15,5 15,9 17,0 14,3 90 43,6 908 0,9 4,3 --- 1,6
08.07.2021 15,5 17,2 18,8 18,4 26,1 13,3 75 0,2 3225 0,7 4,6 --- 8,6
07.07.2021 15,3 17,2 20,3 19,5 27,8 13,6 65 0,0 6324 0,5 5,7 --- 10,7
06.07.2021 15,3 17,0 18,9 19,0 27,0 14,1 76 10,0 2599 0,7 6,6 --- 7,4
05.07.2021 15,3 16,9 17,9 17,5 21,0 12,4 80 6,2 2339 0,6 6,9 --- 6,2
04.07.2021 15,3 17,1 18,8 18,3 26,9 13,1 78 9,8 3487 0,6 6,1 --- 9,3
03.07.2021 14,9 16,6 19,6 18,3 27,6 10,1 65 0,1 7175 0,6 5,2 --- 11,1
02.07.2021 15,1 16,4 15,5 15,2 22,4 11,9 80 4,7 2694 0,7 3,2 --- 7,8
01.07.2021 15,7 17,0 13,5 13,8 15,2 13,1 90 7,0 767 1,2 6,0 --- 0,7
30.06.2021 16,0 17,9 18,2 17,2 21,6 15,0 76 8,1 3539 1,3 8,3 --- 9,5
29.06.2021 15,8 17,7 20,1 19,8 26,4 16,4 78 26,2 4313 0,6 6,0 --- 10,3
28.06.2021 15,7 17,8 23,0 22,9 29,9 16,9 59 36,5 3269 0,8 7,0 --- 9,2
27.06.2021 15,3 17,4 21,1 20,9 28,1 12,2 54 0,0 6561 1,0 5,5 --- 12,1
26.06.2021 15,2 17,0 19,3 18,9 27,8 10,1 63 0,0 5285 0,4 2,7 --- 12,2
25.06.2021 15,2 17,1 19,1 17,9 24,6 13,8 72 13,3 4761 0,8 5,6 --- 11,4
24.06.2021 15,4 16,9 17,0 16,8 20,8 12,3 76 0,0 2365 0,6 4,8 --- 9,1
23.06.2021 15,6 17,5 18,3 18,0 24,2 13,4 71 0,0 4127 1,1 4,7 --- 11,5
22.06.2021 16,1 17,9 16,1 15,8 22,1 13,0 73 2,6 2966 1,1 4,9 --- 8,3
21.06.2021 16,4 18,9 21,6 20,5 26,1 15,0 69 16,1 4707 1,4 9,3 --- 10,9
20.06.2021 16,4 19,0 26,0 25,0 30,9 20,3 54 0,0 5280 1,0 6,5 --- 11,4
19.06.2021 16,1 18,9 27,3 25,5 33,1 18,8 55 0,0 7518 1,0 7,3 --- 12,9
18.06.2021 15,7 18,2 26,6 25,8 36,7 15,2 55 0,0 7149 0,6 3,6 --- 12,0
17.06.2021 15,3 17,8 26,7 26,2 35,6 15,1 51 0,0 7634 0,5 3,9 --- 13,1
16.06.2021 14,9 17,2 23,5 23,1 32,2 12,8 59 0,0 6490 0,7 4,6 --- 12,5
15.06.2021 14,5 16,7 21,0 19,7 28,7 11,3 64 0,0 6545 0,9 5,6 --- 12,6
14.06.2021 14,1 16,0 19,8 18,9 29,4 7,1 54 0,0 8072 0,6 3,2 --- 13,1
13.06.2021 14,2 15,9 16,6 15,4 22,2 9,5 54 0,0 8146 1,2 5,5 --- 13,5
12.06.2021 14,7 16,5 18,9 17,9 22,8 13,4 66 0,0 3731 1,5 7,7 --- 9,7
11.06.2021 14,5 16,7 20,9 19,9 29,2 10,9 64 1,1 6726 0,7 7,7 --- 12,2
10.06.2021 14,3 16,6 20,4 19,3 27,2 13,6 69 0,3 6316 0,7 4,9 --- 12,1
09.06.2021 14,0 16,1 19,7 19,4 28,3 14,1 75 11,6 5291 0,5 4,0 --- 10,2
08.06.2021 13,7 15,6 19,2 18,7 23,9 14,4 73 0,0 3555 0,6 3,8 --- 11,1
07.06.2021 13,6 15,4 17,9 17,6 20,6 15,3 76 0,0 1914 0,7 3,5 --- 8,9
06.06.2021 13,8 15,7 17,3 17,0 19,3 15,9 83 0,0 1737 1,2 4,4 --- 6,4
05.06.2021 13,5 15,9 19,8 19,0 26,9 14,2 79 8,0 4806 0,8 4,8 --- 8,2
04.06.2021 13,1 15,4 21,0 20,3 30,1 13,8 72 0,1 4914 0,5 3,3 --- 10,5
03.06.2021 12,5 14,6 20,3 20,4 29,8 9,9 56 0,4 4763 0,5 4,2 --- 10,2
02.06.2021 12,0 14,2 20,0 19,6 29,0 8,8 51 0,0 7482 0,6 3,6 --- 12,4
01.06.2021 11,5 13,4 16,5 16,3 25,2 5,5 51 0,0 7714 0,9 5,1 --- 12,9
31.05.2021 11,2 13,1 15,9 15,5 23,7 7,2 55 0,0 7944 0,8 6,4 --- 13,3
30.05.2021 10,7 12,3 13,2 12,9 22,0 3,5 63 0,0 6093 1,0 5,9 --- 11,5
29.05.2021 10,5 12,1 12,0 11,5 17,9 5,2 70 0,1 5131 1,0 6,8 --- 11,6
28.05.2021 10,2 11,8 12,6 12,3 18,2 8,1 67 1,2 3848 0,9 8,0 --- 8,4
27.05.2021 10,1 11,2 9,8 10,0 11,9 8,5 84 8,7 1372 1,5 6,5 --- 5,6
26.05.2021 10,3 11,5 9,9 9,5 13,1 7,9 82 3,9 1890 1,0 5,5 --- 6,6
25.05.2021 10,6 12,0 9,5 9,3 12,2 7,8 77 3,2 2369 1,9 10,7 --- 6,7
24.05.2021 10,3 11,9 13,8 13,2 22,6 4,1 58 0,2 5932 1,1 7,7 --- 11,0
23.05.2021 10,2 11,5 10,4 10,3 15,8 5,5 65 0,4 3537 1,6 11,2 --- 7,1
22.05.2021 10,7 12,0 10,3 10,4 14,4 7,7 72 2,5 1843 1,8 11,6 --- 6,6
21.05.2021 10,7 12,6 15,0 14,1 18,3 11,1 47 0,0 4884 1,9 10,9 --- 11,7
20.05.2021 10,2 12,1 13,3 12,1 17,5 8,2 64 0,2 4824 1,1 7,1 --- 10,4
19.05.2021 9,8 11,2 11,5 10,2 18,3 4,6 70 1,5 4846 1,0 5,0 --- 10,7
18.05.2021 10,0 11,3 10,3 10,1 15,0 7,1 83 5,1 2533 0,9 7,6 --- 5,5
17.05.2021 10,0 11,4 10,9 10,6 14,5 6,0 81 4,5 2441 1,0 6,3 --- 6,1
16.05.2021 9,8 11,5 11,9 11,2 17,9 8,0 75 4,0 3874 0,9 9,0 --- 8,1
15.05.2021 9,7 11,1 10,8 10,5 16,2 5,3 72 0,3 2968 1,0 9,3 --- 7,9
14.05.2021 9,7 11,5 13,0 12,4 18,3 7,5 70 3,2 3159 0,9 6,6 --- 7,4
13.05.2021 9,5 11,2 12,5 12,3 18,2 8,3 75 0,0 2209 0,5 5,0 --- 6,9
12.05.2021 9,5 11,3 12,9 12,8 15,4 9,5 76 1,7 2200 1,2 5,3 --- 8,4
11.05.2021 9,4 11,2 14,0 14,0 16,9 11,3 88 4,6 1323 1,0 4,4 --- 4,4
10.05.2021 8,9 11,2 18,3 18,2 25,0 12,9 56 3,9 3694 1,3 11,3 --- 10,1
09.05.2021 7,5 9,8 19,6 19,6 28,4 7,3 36 0,0 6908 1,1 6,8 --- 12,1
08.05.2021 6,5 7,5 9,8 9,4 17,2 -1,4 49 0,0 4626 1,0 8,1 --- 10,1
07.05.2021 6,8 7,7 6,7 6,2 10,5 1,7 65 2,3 3443 2,0 8,6 --- 9,7
06.05.2021 6,7 7,5 6,9 6,6 11,5 2,4 68 1,6 2670 1,3 8,7 --- 8,3
05.05.2021 6,8 7,6 6,3 6,3 9,1 3,1 68 0,3 3297 2,5 11,9 --- 9,7
04.05.2021 7,2 8,0 8,3 9,2 12,7 6,3 58 10,2 1354 2,7 14,0 --- 3,3
03.05.2021 7,1 8,1 8,6 7,5 14,7 -0,7 51 0,0 5813 1,5 8,8 --- 11,0
02.05.2021 7,6 8,6 7,7 7,5 10,1 4,8 54 0,0 1843 2,1 8,7 --- 7,2
01.05.2021 7,5 8,9 10,6 9,8 14,3 5,6 63 0,0 3241 1,0 4,7 --- 9,5
30.04.2021 7,5 8,7 8,3 8,2 12,7 6,0 65 0,0 1953 1,1 6,4 --- 7,0
29.04.2021 7,5 9,2 11,0 10,5 15,6 6,7 66 5,0 3575 2,1 12,2 --- 8,2
28.04.2021 6,8 8,3 11,9 12,1 20,6 0,8 41 0,2 5491 1,2 9,1 --- 11,0
27.04.2021 6,5 7,9 8,6 8,4 14,6 2,1 34 0,0 6862 2,9 9,1 --- 11,9
26.04.2021 6,3 7,3 6,5 6,4 13,4 -2,2 45 0,0 6842 1,4 7,9 --- 11,5
25.04.2021 6,4 7,6 5,2 5,0 11,5 -0,6 60 0,0 6132 1,6 6,4 --- 11,6
24.04.2021 6,4 7,6 7,0 6,5 15,1 -1,0 63 0,0 5696 1,0 5,4 --- 10,5
23.04.2021 6,4 7,6 6,1 5,9 13,9 -0,9 63 0,0 5417 1,1 6,6 --- 10,1
22.04.2021 6,5 8,0 6,9 6,1 11,8 0,0 54 0,0 5876 2,1 8,8 --- 10,8
21.04.2021 6,2 8,0 10,7 9,9 18,5 3,4 63 0,0 5203 1,6 8,1 --- 9,9
20.04.2021 5,6 7,0 8,6 8,3 18,6 0,9 75 0,5 4545 0,9 8,3 --- 9,6
19.04.2021 5,4 6,8 7,8 8,0 13,9 4,5 78 11,0 2480 0,9 7,0 --- 7,2
18.04.2021 4,8 6,1 7,6 7,3 13,2 4,4 85 10,4 1936 0,5 4,5 --- 6,5
17.04.2021 4,5 5,3 5,0 5,2 8,8 0,2 62 0,0 1416 0,8 5,7 --- 4,5
16.04.2021 4,2 5,2 5,5 5,6 11,0 0,1 53 0,0 3116 1,4 8,0 --- 9,4
15.04.2021 4,1 4,6 2,3 2,2 7,4 -3,2 73 1,4 2611 1,1 9,3 --- 8,3
14.04.2021 4,4 4,9 1,9 1,4 8,0 -3,2 80 0,0 3349 1,0 6,7 --- 7,0
13.04.2021 4,6 5,4 3,2 2,5 9,9 -2,5 69 0,0 3526 1,0 7,9 --- 8,4
12.04.2021 4,8 5,7 3,6 3,0 8,6 -0,2 74 0,0 2954 1,5 6,9 --- 7,6
11.04.2021 4,8 6,1 7,3 7,6 14,5 2,1 84 0,0 1146 1,1 7,8 --- 3,1
10.04.2021 4,3 5,4 6,6 7,0 9,1 4,7 87 0,0 867 0,6 4,5 --- 3,2
09.04.2021 3,7 4,5 6,8 6,6 14,1 0,2 48 0,0 4380 1,4 10,9 --- 9,8
08.04.2021 3,7 4,2 2,7 2,5 6,2 0,1 66 0,0 2123 2,0 7,5 --- 7,1
07.04.2021 3,9 4,2 1,0 1,1 4,5 -1,0 80 0,0 1102 2,6 8,8 --- 2,6
06.04.2021 4,2 4,6 1,6 1,0 5,3 -1,3 72 0,0 3305 3,0 12,2 --- 6,1
05.04.2021 4,9 5,2 1,3 2,0 5,2 -1,4 79 0,0 989 2,6 12,5 --- 3,8
04.04.2021 5,3 6,1 4,7 4,2 8,8 -0,1 71 0,0 3086 1,3 6,0 --- 8,5
03.04.2021 5,7 6,7 5,0 5,1 10,8 0,8 68 0,0 2883 1,9 6,9 --- 8,0
02.04.2021 6,0 7,3 7,2 6,8 10,4 5,2 64 0,0 3204 2,1 8,7 --- 7,8
01.04.2021 5,8 7,5 11,7 11,9 22,3 5,2 56 0,0 4231 1,7 10,9 --- 9,0
31.03.2021 5,2 6,9 13,2 14,0 26,0 2,6 43 0,0 4724 0,9 5,2 --- 10,1
30.03.2021 4,8 6,3 11,2 12,1 24,3 1,6 49 0,0 4807 0,8 4,1 --- 10,1
29.03.2021 4,3 5,9 12,5 12,7 20,4 5,8 41 0,0 4300 1,6 7,9 --- 10,1
28.03.2021 3,8 4,6 6,5 6,8 12,7 -0,8 61 0,0 2255 1,7 10,8 --- 8,1
27.03.2021 4,3 5,4 5,4 6,0 11,0 -0,2 66 1,7 2124 2,3 13,6 --- 6,6
26.03.2021 4,0 5,5 9,9 9,9 16,2 4,0 61 0,0 3334 1,2 8,1 --- 8,8
25.03.2021 3,3 4,5 7,9 8,2 16,5 -0,1 66 0,0 2829 0,9 5,5 --- 8,6
24.03.2021 2,9 3,8 6,0 6,0 15,2 -2,5 67 0,0 4108 1,0 6,7 --- 9,7
23.03.2021 3,0 4,0 4,6 4,9 9,2 1,0 73 0,0 1140 1,1 4,5 --- 4,6
22.03.2021 2,8 3,7 4,1 4,5 7,6 2,3 71 0,4 1261 1,8 8,1 --- 4,3
21.03.2021 2,6 3,4 4,3 4,6 7,2 2,6 63 0,7 1523 2,7 10,1 --- 5,7
20.03.2021 2,4 2,9 1,1 0,8 6,4 -5,1 47 0,0 3404 1,3 6,5 --- 8,8
19.03.2021 2,7 3,3 1,6 1,9 6,1 -1,1 70 0,3 2705 1,8 11,0 --- 7,3
18.03.2021 2,6 3,2 1,8 1,2 7,0 -3,1 81 0,5 2706 1,0 6,0 --- 7,8
17.03.2021 2,9 3,5 1,3 1,7 5,4 -2,2 76 0,0 1292 1,0 5,6 --- 3,1
16.03.2021 3,0 3,8 3,6 3,7 8,0 -0,1 74 1,4 2273 2,3 10,9 --- 6,3
15.03.2021 3,0 3,9 4,0 4,4 7,4 2,1 79 6,0 1350 2,2 12,7 --- 5,1
14.03.2021 3,0 3,8 4,2 4,5 7,0 2,9 74 1,0 1437 2,5 9,9 --- 5,5
13.03.2021 3,1 4,1 5,0 5,6 8,2 3,0 77 6,0 1434 3,2 15,6 --- 4,7
12.03.2021 3,0 4,1 6,4 6,5 10,0 2,5 62 4,1 2058 3,5 13,4 --- 6,1
11.03.2021 2,6 3,7 7,4 8,3 12,7 4,7 70 2,6 1263 2,9 15,1 --- 2,5
10.03.2021 2,0 2,9 4,4 4,5 8,5 1,1 77 0,3 1373 0,8 5,7 --- 5,9
09.03.2021 1,7 2,1 0,8 1,0 6,0 -2,1 87 5,1 880 0,4 3,5 --- 2,7
08.03.2021 1,7 2,0 1,1 1,1 6,1 -1,4 78 0,0 1157 0,7 4,0 --- 4,0
07.03.2021 1,8 1,7 -0,8 -0,6 6,2 -6,1 72 0,1 2692 1,0 6,4 --- 7,5
06.03.2021 2,3 2,3 -1,0 -0,5 8,1 -6,3 69 0,0 2801 0,7 5,1 --- 8,2
05.03.2021 3,0 3,7 1,6 2,1 6,8 -3,3 66 0,0 1904 1,7 8,5 --- 6,3
04.03.2021 3,1 3,9 4,1 4,7 9,4 2,6 90 5,1 986 0,9 4,8 --- 1,7
03.03.2021 2,9 3,6 4,9 5,8 16,9 -1,7 72 0,0 2767 0,7 3,5 --- 7,4
02.03.2021 2,9 3,9 5,7 6,1 17,1 0,2 71 0,0 3242 0,9 3,2 --- 7,7
01.03.2021 2,6 3,4 3,6 3,9 8,9 -0,4 87 0,0 2179 1,6 4,7 --- 6,2
28.02.2021 2,6 3,4 4,2 4,9 11,9 -1,0 73 0,0 3586 1,0 4,4 --- 7,9
27.02.2021 2,6 3,1 2,6 3,2 5,8 -0,7 84 0,0 1085 1,1 4,3 --- 2,4
26.02.2021 2,9 3,8 3,8 4,9 7,4 2,2 90 3,1 795 0,9 7,3 --- 0,5
25.02.2021 2,7 4,0 9,6 10,8 20,1 5,0 68 0,0 3035 0,9 5,7 --- 7,5
24.02.2021 2,1 3,6 10,7 12,0 19,3 5,5 66 0,0 2841 1,0 6,6 --- 7,2
23.02.2021 1,1 2,2 8,5 9,3 19,0 1,5 69 0,0 2564 0,9 7,4 --- 6,9
22.02.2021 0,4 0,9 4,6 6,0 14,6 -0,1 74 0,0 2627 0,6 2,3 --- 6,9
21.02.2021 0,3 0,6 8,2 10,1 19,8 4,1 57 0,0 3028 0,9 4,9 --- 7,4
20.02.2021 0,3 0,6 5,4 6,9 16,7 1,6 76 0,0 2562 0,6 4,3 --- 6,6
19.02.2021 0,3 0,6 4,6 5,6 10,9 1,4 71 0,3 2545 1,2 6,7 --- 6,3
18.02.2021 0,4 0,6 3,0 4,5 8,8 -0,5 77 0,2 1324 0,8 5,4 --- 5,2
17.02.2021 0,5 0,5 4,3 5,7 8,9 2,0 81 1,8 2050 1,1 7,4 --- 3,5
16.02.2021 0,6 0,9 2,5 3,7 11,6 0,6 83 11,3 1964 0,5 3,3 --- 4,0
15.02.2021 0,7 1,0 -3,5 -2,4 1,7 -9,0 56 0,1 923 1,0 5,8 --- 1,0
14.02.2021 0,8 1,1 -12,5 -9,7 3,9 -18,9 69 3,9 2656 0,5 3,1 --- 6,8
13.02.2021 0,9 1,1 -12,6 -10,4 -4,7 -16,0 80 0,0 2719 1,2 5,0 --- 7,4
12.02.2021 0,9 1,2 -10,8 -9,7 -3,9 -14,9 77 0,0 2718 1,5 9,6 --- 6,2
11.02.2021 1,0 1,2 -8,4 -7,4 -2,0 -13,4 78 0,0 1831 0,5 3,5 --- 2,3
10.02.2021 1,1 1,3 -14,2 -12,8 -3,0 -20,7 77 0,0 2506 0,8 7,0 --- 6,1
09.02.2021 1,3 1,5 -14,7 -13,0 -5,9 -18,4 73 0,0 1927 0,6 2,4 --- 4,3
08.02.2021 1,5 1,7 -8,6 -8,5 -6,9 -11,5 74 0,0 1251 2,8 7,7 --- 5,0
07.02.2021 1,7 1,9 -5,2 -4,8 -1,7 -7,0 79 0,0 348 5,7 18,0 --- ---
06.02.2021 2,2 2,8 0,8 1,4 4,4 -1,6 88 1,4 309 4,3 18,3 --- ---
05.02.2021 2,4 2,9 1,9 2,9 5,4 -0,9 91 3,6 420 0,9 3,5 --- ---
04.02.2021 2,8 4,2 4,9 6,2 9,1 0,5 78 2,0 1530 2,9 10,2 --- 3,6
03.02.2021 2,1 3,7 5,9 7,4 10,3 2,9 91 14,5 535 1,7 11,7 --- 0,6
02.02.2021 1,1 1,9 3,7 4,4 7,7 2,0 92 2,9 409 0,8 4,0 --- ---
01.02.2021 1,3 0,2 -0,6 0,8 3,1 -1,3 91 1,4 491 1,4 4,1 --- 0,4
31.01.2021 2,0 0,0 -2,9 -1,1 4,1 -5,2 75 0,0 2039 2,0 8,6 --- 6,3
30.01.2021 2,8 1,2 0,1 1,9 7,1 -0,9 78 2,2 771 3,5 12,8 --- 2,1
29.01.2021 2,2 1,3 2,6 4,5 9,9 1,4 88 15,2 505 1,6 5,4 --- 0,2
28.01.2021 1,7 0,7 0,5 2,1 3,1 1,5 95 14,7 157 1,4 5,1 --- ---
27.01.2021 1,5 0,2 -0,9 0,6 1,5 -0,9 90 0,7 639 2,1 7,4 --- 0,5
26.01.2021 1,6 0,5 -1,1 0,5 3,6 -2,6 87 1,9 916 2,4 10,1 --- 0,2
25.01.2021 1,9 0,6 -2,1 -0,8 1,9 -3,1 90 0,3 707 0,8 3,3 --- 2,6
24.01.2021 2,3 1,3 0,3 1,6 2,4 -0,6 87 0,9 464 1,2 9,7 --- ---
23.01.2021 2,6 1,8 0,8 2,1 3,8 0,0 92 0,1 395 0,9 5,0 --- 0,7
22.01.2021 2,9 2,9 4,3 5,8 10,4 1,0 85 5,0 543 1,7 13,2 --- 0,1
21.01.2021 2,0 2,2 5,8 7,9 11,2 4,1 64 2,9 564 2,7 13,0 --- 0,6
20.01.2021 1,3 1,4 2,8 4,6 9,2 0,0 67 0,0 1082 1,7 8,1 --- 3,4
19.01.2021 1,0 1,4 2,3 3,3 4,6 1,9 83 3,5 237 2,5 8,4 --- ---
18.01.2021 0,9 1,2 1,0 1,8 3,3 -0,5 87 2,8 578 0,9 5,7 --- 0,4
17.01.2021 0,8 1,0 -1,8 -1,6 0,4 -2,9 81 1,3 519 0,2 1,7 --- ---
16.01.2021 1,0 1,1 -2,1 -1,8 -0,5 -2,6 63 0,0 473 1,2 5,1 --- ---
15.01.2021 1,2 1,3 -1,4 -0,9 0,9 -3,7 80 0,0 411 1,1 5,4 --- ---
14.01.2021 1,3 1,5 0,1 0,7 4,4 -0,4 71 0,1 572 2,0 10,6 --- 1,6
13.01.2021 1,5 1,6 0,8 1,8 3,8 0,5 73 0,0 1108 2,8 10,5 --- 0,9
12.01.2021 1,6 1,9 1,1 2,1 3,5 1,0 84 0,0 416 2,2 8,4 --- ---
11.01.2021 1,8 1,9 -1,1 -0,7 2,1 -4,4 74 0,0 981 1,4 7,8 --- 2,5
10.01.2021 1,9 2,2 -1,3 -0,6 2,8 -3,9 86 0,0 739 0,3 1,7 --- 1,8
09.01.2021 2,0 2,3 -1,1 -0,5 1,0 -2,7 86 0,0 450 0,7 3,9 --- 0,2
08.01.2021 2,1 2,4 0,1 0,5 1,3 -0,6 91 0,0 686 0,6 4,7 --- 0,8
07.01.2021 2,2 2,4 0,1 0,6 1,9 -0,2 81 0,0 345 0,9 4,6 --- ---
06.01.2021 2,3 2,6 0,8 1,4 2,2 0,4 88 0,0 232 1,2 6,4 --- ---
05.01.2021 2,3 2,6 0,5 1,0 1,6 0,5 90 0,3 149 2,6 6,4 --- ---
04.01.2021 2,5 2,7 0,0 0,6 0,9 0,2 90 0,0 109 1,8 4,8 --- ---
03.01.2021 2,7 2,9 0,7 1,3 2,3 0,1 79 0,3 148 2,6 8,5 --- ---
02.01.2021 2,8 3,1 1,2 1,5 3,0 0,3 84 0,0 488 0,8 7,1 --- ---
01.01.2021 2,9 3,2 1,0 1,3 2,1 0,7 92 1,3 232 0,4 2,3 --- ---

Mittelwerte (Temperaturen, Strahlung, rel. Feuchte, Wind), Summe (Regen) für 2021
8,9 9,8 10,2 10,4 73 614 2.795 1,1

Landesbetrieb Landwirtschaft Hessen 2009

      Werte bis 5 Uhr SommerzeitCSV-Datei: Niedergude21.csvDiagramm: Niedergude